Time;durP1;ratioP1;P1;durP2;ratioP2;P2;SDS_P1;SDS_P2;PMS_P1;PMS_P2;Temp;Humidity;BMP_temperature;BMP_pressure;BME280_temperature;BME280_humidity;BME280_pressure;Samples;Min_cycle;Max_cycle;Signal;HPM_P1;HPM_P2
2023/02/14 00:01:16;;;;;;;47.75;23.60;;;4.60;99.90;;;;;;4994028;28;95889;-78
2023/02/14 00:03:43;;;;;;;50.78;25.30;;;4.60;99.90;;;;;;4993618;28;92507;-79
2023/02/14 00:06:12;;;;;;;50.78;24.15;;;4.60;99.90;;;;;;4993722;28;92383;-79
2023/02/14 00:08:39;;;;;;;53.42;24.63;;;4.60;99.90;;;;;;4992636;28;95703;-79
2023/02/14 00:11:09;;;;;;;51.28;23.67;;;4.60;99.90;;;;;;4993608;28;98106;-79
2023/02/14 00:13:36;;;;;;;56.17;25.20;;;4.60;99.90;;;;;;4994728;28;93082;-79
2023/02/14 00:16:04;;;;;;;54.85;25.20;;;4.60;99.90;;;;;;4995213;28;92432;-79
2023/02/14 00:21:17;;;;;;;60.40;25.67;;;4.50;99.90;;;;;;4994583;28;95019;-79
2023/02/14 00:23:43;;;;;;;58.00;25.33;;;4.50;99.90;;;;;;4977342;28;92625;-79
2023/02/14 00:26:14;;;;;;;51.53;24.88;;;4.50;99.90;;;;;;4994156;28;91742;-79
2023/02/14 00:28:42;;;;;;;56.78;24.40;;;4.50;99.90;;;;;;4993333;28;96105;-79
2023/02/14 00:31:09;;;;;;;58.17;26.30;;;4.50;99.90;;;;;;4996547;28;95839;-79
2023/02/14 00:33:36;;;;;;;60.92;26.08;;;4.50;99.90;;;;;;4995578;28;94921;-79
2023/02/14 00:36:05;;;;;;;58.65;26.48;;;4.50;99.90;;;;;;4997228;28;92503;-80
2023/02/14 00:38:33;;;;;;;57.03;25.17;;;4.50;99.90;;;;;;4998126;28;93225;-79
2023/02/14 00:41:01;;;;;;;59.85;26.55;;;4.40;99.90;;;;;;4997114;28;93213;-79
2023/02/14 00:43:28;;;;;;;55.20;24.30;;;4.40;99.90;;;;;;4980314;28;92578;-79
2023/02/14 00:45:57;;;;;;;60.78;28.15;;;4.40;99.90;;;;;;4997038;28;92549;-79
2023/02/14 00:48:25;;;;;;;68.35;27.73;;;4.40;99.90;;;;;;4980116;28;96060;-79
2023/02/14 00:50:52;;;;;;;49.35;23.50;;;4.40;99.90;;;;;;4997119;28;93187;-79
2023/02/14 00:53:19;;;;;;;64.03;26.75;;;4.40;99.90;;;;;;4998058;28;94298;-79
2023/02/14 00:55:46;;;;;;;58.05;24.98;;;4.40;99.90;;;;;;4997120;28;92652;-79
2023/02/14 00:58:17;;;;;;;59.35;25.27;;;4.40;99.90;;;;;;4996821;28;95383;-79
2023/02/14 01:00:44;;;;;;;57.33;24.92;;;4.40;99.90;;;;;;4980044;28;96918;-79
2023/02/14 01:03:11;;;;;;;63.42;25.42;;;4.30;99.90;;;;;;4996826;28;92575;-79
2023/02/14 01:05:38;;;;;;;57.53;27.75;;;4.30;99.90;;;;;;4979935;28;92546;-79
2023/02/14 01:08:05;;;;;;;68.22;28.60;;;4.30;99.90;;;;;;4980025;28;96103;-79
2023/02/14 01:10:36;;;;;;;70.72;29.85;;;4.40;99.90;;;;;;4995886;28;96139;-79
2023/02/14 01:13:03;;;;;;;66.85;28.98;;;4.40;99.90;;;;;;4980037;28;92533;-79
2023/02/14 01:15:31;;;;;;;68.65;29.35;;;4.40;99.90;;;;;;4996620;28;91686;-80
2023/02/14 01:17:59;;;;;;;65.50;29.70;;;4.40;99.90;;;;;;4996429;28;92439;-79
2023/02/14 01:20:26;;;;;;;64.03;28.88;;;4.40;99.90;;;;;;4996023;28;93052;-79
2023/02/14 01:22:53;;;;;;;68.85;29.33;;;4.40;99.90;;;;;;4996470;28;94935;-78
2023/02/14 01:25:20;;;;;;;56.70;28.17;;;4.50;99.90;;;;;;4996448;28;92535;-79
2023/02/14 01:27:47;;;;;;;63.83;27.15;;;4.50;99.90;;;;;;4979703;28;95997;-79
2023/02/14 01:30:15;;;;;;;63.78;27.55;;;4.50;99.90;;;;;;4979225;28;100896;-79
2023/02/14 01:32:43;;;;;;;68.72;29.13;;;4.50;99.90;;;;;;4997750;28;92488;-78
2023/02/14 01:35:11;;;;;;;66.72;28.55;;;4.60;99.90;;;;;;4995647;28;92645;-78
2023/02/14 01:37:38;;;;;;;57.15;26.15;;;4.50;99.90;;;;;;4979178;28;96176;-79
2023/02/14 01:40:07;;;;;;;66.43;27.77;;;4.50;99.90;;;;;;4979785;28;96905;-79
2023/02/14 01:42:35;;;;;;;64.57;28.15;;;4.50;99.90;;;;;;4995692;28;92727;-79
2023/02/14 01:45:19;;;;;;;63.70;28.23;;;4.50;99.90;;;;;;4980376;28;93176;-79
2023/02/14 01:47:52;;;;;;;63.13;28.70;;;4.50;99.90;;;;;;4996216;28;95705;-78
2023/02/14 01:50:28;;;;;;;60.70;26.05;;;4.50;99.90;;;;;;4995482;28;98029;-78
2023/02/14 01:53:01;;;;;;;66.38;29.25;;;4.50;99.90;;;;;;4997446;28;92427;-79
2023/02/14 01:55:32;;;;;;;62.15;29.08;;;4.50;99.90;;;;;;4997161;28;92435;-78
2023/02/14 01:58:07;;;;;;;64.18;28.42;;;4.50;99.90;;;;;;4997229;28;93370;-78
2023/02/14 02:03:50;;;;;;;67.90;27.80;;;4.40;99.90;;;;;;4997267;28;92634;-78
2023/02/14 02:06:31;;;;;;;62.70;27.58;;;4.40;99.90;;;;;;4997599;28;92300;-79
2023/02/14 02:09:13;;;;;;;59.75;25.77;;;4.40;99.90;;;;;;4995227;28;96073;-78
2023/02/14 02:11:41;;;;;;;69.40;26.95;;;4.40;99.90;;;;;;4995559;28;92882;-79
2023/02/14 02:14:14;;;;;;;62.85;27.27;;;4.30;99.90;;;;;;4994269;28;94839;-79
2023/02/14 02:17:08;;;;;;;64.68;27.45;;;4.30;99.90;;;;;;4995701;28;92858;-79
2023/02/14 02:20:13;;;;;;;56.75;26.00;;;4.30;99.90;;;;;;4996531;28;92534;-79
2023/02/14 02:23:08;;;;;;;57.30;24.53;;;4.30;99.90;;;;;;4995321;28;95850;-79
2023/02/14 02:25:35;;;;;;;55.85;25.35;;;4.30;99.90;;;;;;4996617;28;92466;-79
2023/02/14 02:28:13;;;;;;;59.88;25.58;;;4.20;99.90;;;;;;4996895;28;92445;-79
2023/02/14 02:30:59;;;;;;;64.07;27.90;;;4.20;99.90;;;;;;4996388;28;94170;-79
2023/02/14 02:33:50;;;;;;;62.40;26.63;;;4.30;99.90;;;;;;4979204;28;93969;-79
2023/02/14 02:36:32;;;;;;;57.22;26.85;;;4.20;99.90;;;;;;4978709;28;92860;-79
2023/02/14 02:39:37;;;;;;;60.38;26.35;;;4.20;99.90;;;;;;4996827;28;92475;-79
2023/02/14 02:42:07;;;;;;;62.05;27.58;;;4.20;99.90;;;;;;4989902;28;95588;-79
2023/02/14 02:44:34;;;;;;;61.25;26.58;;;4.10;99.90;;;;;;4995671;28;95517;-79
2023/02/14 02:47:10;;;;;;;62.35;27.13;;;4.10;99.90;;;;;;4995068;28;92573;-79
2023/02/14 02:53:05;;;;;;;66.55;28.15;;;4.20;99.90;;;;;;4993370;28;95578;-79
2023/02/14 02:58:45;;;;;;;71.47;29.27;;;4.10;99.90;;;;;;4980558;28;92476;-79
2023/02/14 03:01:18;;;;;;;63.40;28.40;;;4.10;99.90;;;;;;4978480;28;91606;-79
2023/02/14 03:06:35;;;;;;;65.68;28.30;;;4.10;99.90;;;;;;4994592;28;95445;-79
2023/02/14 03:09:29;;;;;;;69.40;28.63;;;4.00;99.90;;;;;;4977040;28;95536;-79
2023/02/14 03:12:07;;;;;;;67.22;27.70;;;4.10;99.90;;;;;;4991462;28;92717;-79
2023/02/14 03:14:48;;;;;;;60.08;25.95;;;4.00;99.90;;;;;;4994674;28;95788;-79
2023/02/14 03:17:34;;;;;;;65.95;27.45;;;4.00;99.90;;;;;;4994424;28;95926;-79
2023/02/14 03:20:15;;;;;;;63.10;26.35;;;4.00;99.90;;;;;;4993956;28;92966;-79
2023/02/14 03:22:58;;;;;;;60.85;24.30;;;4.00;99.90;;;;;;4977867;28;92437;-79
2023/02/14 03:25:44;;;;;;;68.28;27.70;;;4.00;99.90;;;;;;4995587;28;92474;-79
2023/02/14 03:28:23;;;;;;;60.35;24.90;;;4.00;99.90;;;;;;4995933;28;93049;-79
2023/02/14 03:31:28;;;;;;;59.55;25.17;;;4.00;99.90;;;;;;4994624;28;92431;-79
2023/02/14 03:34:28;;;;;;;64.22;28.70;;;4.00;99.90;;;;;;4974435;28;93243;-79
2023/02/14 03:37:13;;;;;;;57.38;26.17;;;3.90;99.90;;;;;;4982126;28;98574;-79
2023/02/14 03:39:48;;;;;;;64.45;26.75;;;3.90;99.90;;;;;;4994055;28;97964;-79
2023/02/14 03:42:22;;;;;;;65.15;27.38;;;3.90;99.90;;;;;;4994163;28;92513;-79
2023/02/14 03:44:52;;;;;;;67.72;25.55;;;3.80;99.90;;;;;;4993927;28;92553;-79
2023/02/14 03:47:29;;;;;;;80.07;29.05;;;3.80;99.90;;;;;;4993923;28;93040;-79
2023/02/14 03:50:01;;;;;;;74.03;28.10;;;3.80;99.90;;;;;;4995250;28;93118;-80
2023/02/14 03:52:30;;;;;;;73.70;28.35;;;3.80;99.90;;;;;;4993751;28;92473;-80
2023/02/14 03:54:59;;;;;;;79.38;28.45;;;3.80;99.90;;;;;;4993969;28;92172;-77
2023/02/14 03:57:50;;;;;;;70.45;27.50;;;3.80;99.90;;;;;;4993629;28;95894;-78
2023/02/14 04:00:18;;;;;;;72.90;28.98;;;3.80;99.90;;;;;;4993407;28;95857;-79
2023/02/14 04:02:57;;;;;;;74.80;27.42;;;3.80;99.90;;;;;;4994049;28;94874;-79
2023/02/14 04:05:26;;;;;;;67.55;25.75;;;3.80;99.90;;;;;;4994253;28;92380;-78
2023/02/14 04:07:57;;;;;;;61.33;25.67;;;3.70;99.90;;;;;;4993470;28;93409;-78
2023/02/14 04:10:24;;;;;;;64.05;24.42;;;3.70;99.90;;;;;;4993657;28;94552;-78
2023/02/14 04:12:52;;;;;;;70.28;27.48;;;3.70;99.90;;;;;;4977373;28;92526;-79
2023/02/14 04:15:19;;;;;;;72.57;27.30;;;3.70;99.90;;;;;;4993875;28;92469;-79
2023/02/14 04:20:31;;;;;;;72.63;27.55;;;3.70;99.90;;;;;;4995681;28;93020;-79
2023/02/14 04:22:59;;;;;;;73.07;28.08;;;3.60;99.90;;;;;;4993730;28;92442;-79
2023/02/14 04:25:29;;;;;;;71.20;26.90;;;3.60;99.90;;;;;;4995287;28;92509;-79
2023/02/14 04:27:56;;;;;;;71.25;29.02;;;3.60;99.90;;;;;;4993603;28;96128;-79
2023/02/14 04:30:23;;;;;;;68.63;27.77;;;3.60;99.90;;;;;;4977127;28;95182;-79
2023/02/14 04:32:50;;;;;;;80.68;28.70;;;3.60;99.90;;;;;;4993609;28;92401;-79
2023/02/14 04:35:17;;;;;;;65.07;25.42;;;3.60;99.90;;;;;;4993401;28;92548;-79
2023/02/14 04:37:44;;;;;;;83.80;29.38;;;3.60;99.90;;;;;;4994717;28;93326;-79
2023/02/14 04:40:15;;;;;;;80.88;29.70;;;3.60;99.90;;;;;;4993322;28;93077;-79
2023/02/14 04:42:44;;;;;;;75.68;28.23;;;3.60;99.90;;;;;;4993678;28;92537;-79
2023/02/14 04:45:11;;;;;;;70.78;27.52;;;3.50;99.90;;;;;;4993534;28;94472;-79
2023/02/14 04:47:38;;;;;;;68.72;26.10;;;3.50;99.90;;;;;;4994582;28;93069;-79
2023/02/14 04:50:07;;;;;;;66.88;24.02;;;3.50;99.90;;;;;;4994741;28;93154;-79
2023/02/14 04:52:33;;;;;;;59.83;24.13;;;3.50;99.90;;;;;;4993245;28;94854;-78
2023/02/14 04:55:01;;;;;;;72.00;26.92;;;3.50;99.90;;;;;;4960527;28;92772;-79
2023/02/14 04:57:28;;;;;;;71.85;28.73;;;3.40;99.90;;;;;;4994372;28;93309;-79
2023/02/14 04:59:55;;;;;;;82.35;29.75;;;3.40;99.90;;;;;;4992781;28;92999;-79
2023/02/14 05:02:22;;;;;;;60.17;23.75;;;3.40;99.90;;;;;;4994703;28;92483;-79
2023/02/14 05:04:49;;;;;;;66.28;27.00;;;3.40;99.90;;;;;;4993496;28;92497;-79
2023/02/14 05:07:16;;;;;;;66.88;27.23;;;3.40;99.90;;;;;;4992725;28;99003;-79
2023/02/14 05:09:43;;;;;;;71.63;28.25;;;3.40;99.90;;;;;;4976817;28;95704;-79
2023/02/14 05:12:10;;;;;;;59.90;23.58;;;3.40;99.90;;;;;;4994282;28;92321;-78
2023/02/14 05:14:37;;;;;;;68.20;25.83;;;3.40;99.90;;;;;;4994522;28;93034;-80
2023/02/14 05:17:04;;;;;;;62.67;25.33;;;3.40;99.90;;;;;;4995959;28;95713;-79
2023/02/14 05:19:31;;;;;;;72.78;27.42;;;3.40;99.90;;;;;;4997660;28;95532;-79
2023/02/14 05:21:58;;;;;;;72.45;26.33;;;3.40;99.90;;;;;;4997485;28;92385;-79
2023/02/14 05:24:25;;;;;;;72.70;26.10;;;3.40;99.90;;;;;;4997974;28;92817;-79
2023/02/14 05:26:52;;;;;;;74.28;27.83;;;3.40;99.90;;;;;;4996275;28;93254;-79
2023/02/14 05:29:19;;;;;;;78.03;30.45;;;3.40;99.90;;;;;;4995749;28;93183;-79
2023/02/14 05:31:47;;;;;;;68.03;27.40;;;3.40;99.90;;;;;;4997735;28;92433;-78
2023/02/14 05:34:14;;;;;;;86.57;32.72;;;3.40;99.90;;;;;;4996171;28;92138;-77
2023/02/14 05:36:41;;;;;;;71.72;28.08;;;3.40;99.90;;;;;;4995607;28;106581;-77
2023/02/14 05:39:08;;;;;;;73.18;27.27;;;3.40;99.90;;;;;;4995784;28;94018;-77
2023/02/14 05:41:35;;;;;;;67.40;26.10;;;3.40;99.90;;;;;;4995004;28;95140;-77
2023/02/14 05:44:02;;;;;;;81.25;29.15;;;3.40;99.90;;;;;;4995818;28;92537;-77
2023/02/14 05:46:29;;;;;;;71.72;27.05;;;3.30;99.90;;;;;;4995770;28;95838;-77
2023/02/14 05:48:56;;;;;;;60.38;25.02;;;3.30;99.90;;;;;;4979520;28;93233;-77
2023/02/14 05:51:23;;;;;;;806.20;309.52;;;3.30;99.90;;;;;;4962860;28;93112;-77
2023/02/14 05:53:50;;;;;;;180.18;87.95;;;3.30;99.90;;;;;;4995561;28;92516;-77
2023/02/14 05:56:17;;;;;;;133.63;56.33;;;3.30;99.90;;;;;;4978757;28;96273;-77
2023/02/14 05:58:44;;;;;;;93.53;47.22;;;3.30;99.90;;;;;;4979357;28;95662;-77
2023/02/14 06:01:14;;;;;;;91.47;36.90;;;3.30;99.90;;;;;;4979027;28;96163;-77
2023/02/14 06:03:41;;;;;;;82.95;40.45;;;3.30;99.90;;;;;;4997116;28;92429;-77
2023/02/14 06:06:08;;;;;;;91.22;35.45;;;3.30;99.90;;;;;;4995392;28;95726;-77
2023/02/14 06:08:35;;;;;;;82.53;38.20;;;3.30;99.90;;;;;;4996810;28;95386;-77
2023/02/14 06:11:02;;;;;;;93.03;47.85;;;3.30;99.90;;;;;;4995299;28;92569;-77
2023/02/14 06:13:29;;;;;;;71.95;32.60;;;3.20;99.90;;;;;;4962808;28;92507;-77
2023/02/14 06:15:56;;;;;;;72.60;35.30;;;3.20;99.90;;;;;;4978836;28;96147;-77
2023/02/14 06:18:26;;;;;;;84.07;36.38;;;3.20;99.90;;;;;;4978594;28;96438;-77
2023/02/14 06:20:54;;;;;;;72.97;39.78;;;3.20;99.90;;;;;;4979710;28;92513;-77
2023/02/14 06:23:21;;;;;;;72.25;36.10;;;3.20;99.90;;;;;;4996978;28;91670;-77
2023/02/14 06:25:48;;;;;;;68.10;34.97;;;3.20;99.90;;;;;;4996713;28;93175;-78
2023/02/14 06:28:15;;;;;;;61.15;27.17;;;3.20;99.90;;;;;;4993952;28;101670;-77
2023/02/14 06:30:42;;;;;;;65.43;28.70;;;3.20;99.90;;;;;;4961578;28;94881;-77
2023/02/14 06:33:09;;;;;;;62.60;26.38;;;3.10;99.90;;;;;;4996433;28;92451;-77
2023/02/14 06:35:36;;;;;;;73.55;28.75;;;3.20;99.90;;;;;;4996429;28;93592;-77
2023/02/14 06:38:04;;;;;;;68.25;28.73;;;3.10;99.90;;;;;;4978434;28;95651;-77
2023/02/14 06:40:31;;;;;;;71.03;28.00;;;3.20;99.90;;;;;;4996437;28;92337;-77
2023/02/14 06:43:00;;;;;;;68.90;26.90;;;3.10;99.90;;;;;;4995108;28;93274;-78
2023/02/14 06:45:27;;;;;;;65.13;26.92;;;3.10;99.90;;;;;;4994870;28;96222;-77
2023/02/14 06:47:54;;;;;;;66.60;26.90;;;3.10;99.90;;;;;;4979131;28;92067;-77
2023/02/14 06:50:21;;;;;;;63.25;25.95;;;3.10;99.90;;;;;;4994144;28;104637;-77
2023/02/14 06:52:50;;;;;;;67.13;27.80;;;3.10;99.90;;;;;;4978012;28;92524;-78
2023/02/14 06:55:17;;;;;;;56.75;25.05;;;3.10;99.90;;;;;;4993221;28;95612;-77
2023/02/14 06:57:44;;;;;;;72.57;29.23;;;3.10;99.90;;;;;;4994910;28;95177;-77
2023/02/14 07:00:13;;;;;;;176.95;78.45;;;3.10;99.90;;;;;;4995954;28;92502;-77
2023/02/14 07:02:40;;;;;;;118.93;48.92;;;3.10;99.90;;;;;;4995038;28;92815;-73
2023/02/14 07:05:08;;;;;;;68.38;29.45;;;3.10;99.90;;;;;;4994694;28;93645;-73
2023/02/14 07:07:35;;;;;;;57.90;25.42;;;3.10;99.90;;;;;;4995825;28;93109;-74
2023/02/14 07:10:05;;;;;;;70.07;30.90;;;3.10;99.90;;;;;;4996196;28;92547;-74
2023/02/14 07:12:33;;;;;;;58.22;26.65;;;3.10;99.90;;;;;;4996034;28;91746;-74
2023/02/14 07:15:00;;;;;;;62.65;28.05;;;3.20;99.90;;;;;;4978207;28;93308;-74
2023/02/14 07:17:27;;;;;;;63.85;28.25;;;3.20;99.90;;;;;;4977289;28;103176;-74
2023/02/14 07:19:54;;;;;;;65.22;27.73;;;3.20;99.90;;;;;;4993485;28;94879;-74
2023/02/14 07:22:21;;;;;;;56.88;28.00;;;3.20;99.90;;;;;;4995861;28;93131;-74
2023/02/14 07:24:48;;;;;;;55.95;25.50;;;3.30;99.90;;;;;;4978070;28;93243;-74
2023/02/14 07:27:15;;;;;;;58.17;26.15;;;3.30;99.90;;;;;;4977780;28;93539;-74
2023/02/14 07:29:42;;;;;;;60.38;26.17;;;3.40;99.90;;;;;;4995871;28;92488;-74
2023/02/14 07:32:09;;;;;;;50.92;26.08;;;3.40;99.90;;;;;;4994488;28;92524;-74
2023/02/14 07:34:36;;;;;;;52.78;25.48;;;3.50;99.90;;;;;;4993791;28;95884;-74
2023/02/14 07:37:03;;;;;;;43.63;23.92;;;3.50;99.90;;;;;;4978238;28;93059;-74
2023/02/14 07:39:30;;;;;;;66.82;35.08;;;3.60;99.90;;;;;;4977154;28;92462;-74
2023/02/14 07:41:57;;;;;;;62.90;40.80;;;3.80;99.90;;;;;;4977772;28;92580;-74
2023/02/14 07:44:26;;;;;;;44.97;27.35;;;3.90;99.90;;;;;;4976195;28;98459;-74
2023/02/14 07:46:53;;;;;;;34.40;23.45;;;4.00;99.90;;;;;;4993741;28;98645;-74
2023/02/14 07:49:19;;;;;;;49.25;29.25;;;4.10;99.90;;;;;;4993994;28;92472;-74
2023/02/14 07:51:47;;;;;;;43.65;28.20;;;4.30;99.90;;;;;;4994107;28;92624;-75
2023/02/14 07:54:14;;;;;;;41.13;26.30;;;4.40;99.90;;;;;;4995252;28;93266;-74
2023/02/14 07:56:40;;;;;;;58.17;38.85;;;4.50;99.90;;;;;;4976982;28;96184;-74
2023/02/14 07:59:08;;;;;;;39.53;25.05;;;4.70;99.90;;;;;;4994145;28;93069;-74
2023/02/14 08:01:35;;;;;;;28.15;19.17;;;4.80;99.90;;;;;;4977790;28;91861;-74
2023/02/14 08:04:02;;;;;;;33.17;19.42;;;4.90;99.90;;;;;;4995165;28;93704;-74
2023/02/14 08:06:29;;;;;;;27.80;18.73;;;4.90;99.90;;;;;;4993623;28;93477;-74
2023/02/14 08:08:56;;;;;;;32.92;22.75;;;5.00;99.90;;;;;;4993945;28;94819;-75
2023/02/14 08:14:08;;;;;;;23.85;17.55;;;5.20;99.90;;;;;;4993555;28;95760;-74
2023/02/14 08:16:37;;;;;;;20.48;16.08;;;5.30;99.90;;;;;;4995015;28;93008;-74
2023/02/14 08:19:04;;;;;;;30.35;21.85;;;5.40;99.90;;;;;;4993870;28;92605;-74
2023/02/14 08:21:30;;;;;;;24.20;19.27;;;5.60;99.90;;;;;;4995133;28;92504;-74
2023/02/14 08:23:57;;;;;;;23.92;17.60;;;5.70;99.90;;;;;;4993471;28;94957;-74
2023/02/14 08:26:25;;;;;;;23.35;19.10;;;5.90;99.90;;;;;;4977116;28;95898;-75
2023/02/14 08:28:52;;;;;;;28.15;21.98;;;6.00;99.90;;;;;;4993844;28;93059;-74
2023/02/14 08:31:24;;;;;;;25.27;19.88;;;6.00;99.90;;;;;;4977267;28;92501;-74
2023/02/14 08:34:02;;;;;;;35.08;27.80;;;6.10;99.90;;;;;;4993480;28;95697;-74
2023/02/14 08:36:29;;;;;;;26.23;18.00;;;6.00;99.90;;;;;;4992948;28;96583;-75
2023/02/14 08:38:56;;;;;;;27.73;19.27;;;6.00;99.90;;;;;;4994903;28;92824;-75
2023/02/14 08:41:24;;;;;;;27.25;20.85;;;5.90;99.90;;;;;;4993373;28;99768;-75
2023/02/14 08:43:51;;;;;;;24.10;17.80;;;5.90;99.90;;;;;;4994571;28;93135;-75
2023/02/14 08:46:18;;;;;;;32.92;23.77;;;5.90;99.90;;;;;;4993383;28;93809;-74
2023/02/14 08:48:45;;;;;;;27.02;20.30;;;5.90;99.90;;;;;;4993788;28;92482;-74
2023/02/14 08:51:13;;;;;;;27.83;19.25;;;5.90;99.90;;;;;;4995619;28;91730;-74
2023/02/14 08:53:41;;;;;;;28.63;22.20;;;5.90;99.90;;;;;;4979909;28;95335;-74
2023/02/14 08:56:11;;;;;;;24.25;19.40;;;5.90;99.90;;;;;;4980115;28;95709;-74
2023/02/14 08:58:39;;;;;;;28.85;20.52;;;5.80;99.90;;;;;;4995393;28;94854;-75
2023/02/14 09:01:12;;;;;;;25.60;19.10;;;5.80;99.90;;;;;;4998210;28;92327;-74
2023/02/14 09:03:39;;;;;;;25.83;18.47;;;5.90;99.90;;;;;;4996506;28;93541;-74
2023/02/14 09:06:13;;;;;;;24.23;19.25;;;5.90;99.90;;;;;;4996525;28;92474;-75
2023/02/14 09:08:40;;;;;;;28.30;21.13;;;5.90;99.90;;;;;;4996795;28;92925;-74
2023/02/14 09:11:09;;;;;;;23.58;19.45;;;5.90;99.90;;;;;;4997732;28;94600;-74
2023/02/14 09:13:36;;;;;;;24.10;19.00;;;5.90;99.90;;;;;;4996227;28;93867;-75
2023/02/14 09:16:05;;;;;;;22.98;18.45;;;6.00;99.90;;;;;;4996485;28;95602;-75
2023/02/14 09:18:33;;;;;;;27.08;20.13;;;6.00;99.90;;;;;;4997506;28;92323;-74
2023/02/14 09:21:00;;;;;;;28.92;20.50;;;6.10;99.90;;;;;;4979847;28;92510;-75
2023/02/14 09:23:27;;;;;;;27.42;19.20;;;6.10;99.90;;;;;;4962361;28;98309;-75
2023/02/14 09:26:02;;;;;;;27.83;18.60;;;6.20;99.90;;;;;;4979304;28;98106;-74
2023/02/14 09:28:30;;;;;;;24.90;18.88;;;6.30;99.90;;;;;;4997827;28;92379;-75
2023/02/14 09:30:57;;;;;;;23.85;18.08;;;6.40;99.90;;;;;;4996208;28;93048;-75
2023/02/14 09:33:28;;;;;;;21.90;18.15;;;6.50;99.90;;;;;;4997215;28;93539;-74
2023/02/14 09:38:42;;;;;;;23.52;17.42;;;6.60;99.90;;;;;;4995847;28;92521;-75
2023/02/14 09:41:43;;;;;;;25.00;19.23;;;6.60;99.90;;;;;;4996690;28;91767;-74
2023/02/14 09:44:28;;;;;;;24.95;18.02;;;6.80;99.90;;;;;;4995892;28;95758;-75
2023/02/14 09:46:59;;;;;;;24.52;18.73;;;6.80;99.90;;;;;;4995656;28;95033;-75
2023/02/14 09:49:36;;;;;;;26.23;18.52;;;6.90;99.90;;;;;;4979107;28;95314;-74
2023/02/14 09:52:06;;;;;;;26.95;19.52;;;7.00;99.90;;;;;;4995429;28;92475;-75
2023/02/14 09:54:34;;;;;;;24.63;20.52;;;7.10;99.90;;;;;;4995686;28;93333;-74
2023/02/14 09:57:11;;;;;;;33.30;29.70;;;7.20;99.90;;;;;;4995625;28;94595;-75
2023/02/14 10:00:10;;;;;;;24.95;19.08;;;7.40;99.90;;;;;;4997064;28;92326;-75
2023/02/14 10:02:59;;;;;;;24.85;18.65;;;7.50;99.90;;;;;;4994172;28;92544;-75
2023/02/14 10:05:39;;;;;;;24.33;19.58;;;7.60;99.90;;;;;;4997121;28;93350;-75
2023/02/14 10:08:46;;;;;;;27.33;20.17;;;7.70;99.90;;;;;;4997428;28;93243;-74
2023/02/14 10:11:21;;;;;;;29.63;23.05;;;7.90;99.90;;;;;;4995043;28;92660;-75
2023/02/14 10:13:50;;;;;;;25.90;21.10;;;7.90;99.90;;;;;;4995542;28;92450;-74
2023/02/14 10:16:24;;;;;;;24.50;20.25;;;8.00;99.90;;;;;;4994147;28;95612;-74
2023/02/14 10:19:12;;;;;;;27.33;20.67;;;8.10;99.90;;;;;;4995152;28;98101;-75
2023/02/14 10:21:55;;;;;;;23.55;19.05;;;8.20;99.90;;;;;;4997014;28;92317;-75
2023/02/14 10:24:31;;;;;;;24.58;19.67;;;8.30;99.90;;;;;;4996975;28;92412;-75
2023/02/14 10:27:16;;;;;;;35.03;31.20;;;8.30;99.90;;;;;;4996490;28;93195;-75
2023/02/14 10:29:43;;;;;;;24.52;20.15;;;8.50;99.90;;;;;;4996333;28;93167;-75
2023/02/14 10:32:14;;;;;;;26.42;19.48;;;8.50;99.90;;;;;;4995555;28;92409;-75
2023/02/14 10:34:49;;;;;;;26.13;21.02;;;8.60;99.90;;;;;;4995806;28;92364;-75
2023/02/14 10:37:19;;;;;;;25.38;19.60;;;8.70;99.90;;;;;;4996662;28;93259;-75
2023/02/14 10:40:28;;;;;;;24.17;20.40;;;8.70;99.90;;;;;;4996246;28;93082;-75
2023/02/14 10:43:32;;;;;;;26.08;18.80;;;8.90;99.90;;;;;;4953531;28;94973;-75
2023/02/14 10:46:20;;;;;;;23.88;19.67;;;8.90;99.90;;;;;;4996509;28;92427;-75
2023/02/14 10:48:59;;;;;;;24.92;19.63;;;9.10;99.90;;;;;;4996310;28;93203;-75
2023/02/14 10:51:37;;;;;;;27.55;22.20;;;9.10;99.90;;;;;;4995080;28;92957;-75
2023/02/14 10:54:27;;;;;;;23.05;20.30;;;9.20;99.90;;;;;;4995054;28;93049;-75
2023/02/14 10:57:23;;;;;;;25.02;20.25;;;9.20;99.90;;;;;;4994901;28;94338;-75
2023/02/14 11:00:04;;;;;;;26.20;22.13;;;9.30;99.90;;;;;;4978033;28;96077;-75
2023/02/14 11:02:35;;;;;;;25.33;20.63;;;9.20;99.90;;;;;;4995458;28;93028;-75
2023/02/14 11:05:03;;;;;;;24.90;20.77;;;9.30;99.90;;;;;;4996170;28;92928;-75
2023/02/14 11:07:30;;;;;;;24.83;20.27;;;9.40;99.90;;;;;;4978382;28;92571;-75
2023/02/14 11:09:57;;;;;;;28.67;19.23;;;9.40;99.90;;;;;;4994523;28;95668;-75
2023/02/14 11:12:51;;;;;;;23.98;19.33;;;9.60;99.90;;;;;;4995813;28;95729;-75
2023/02/14 11:15:34;;;;;;;23.33;19.30;;;9.70;99.90;;;;;;4994026;28;92665;-75
2023/02/14 11:18:17;;;;;;;24.08;20.50;;;9.80;99.90;;;;;;4995928;28;92561;-75
2023/02/14 11:21:03;;;;;;;24.50;18.75;;;9.90;99.90;;;;;;4995831;28;92624;-75
2023/02/14 11:23:35;;;;;;;25.75;19.25;;;9.90;99.90;;;;;;4994455;28;93154;-75
2023/02/14 11:26:06;;;;;;;24.63;20.15;;;10.00;99.90;;;;;;4994002;28;92464;-75
2023/02/14 11:28:34;;;;;;;26.98;19.42;;;10.00;99.90;;;;;;4996202;28;91683;-75
2023/02/14 11:31:01;;;;;;;22.75;18.85;;;10.10;99.90;;;;;;4977446;28;95747;-75
2023/02/14 11:33:41;;;;;;;24.55;19.58;;;10.10;99.90;;;;;;4995539;28;92956;-75
2023/02/14 11:36:16;;;;;;;25.05;20.05;;;10.20;99.90;;;;;;4994382;28;94917;-75
2023/02/14 11:38:53;;;;;;;26.48;19.33;;;10.30;99.90;;;;;;4994247;28;92478;-75
2023/02/14 11:41:20;;;;;;;25.95;20.65;;;10.40;99.90;;;;;;4994404;28;93341;-75
2023/02/14 11:43:48;;;;;;;24.23;19.23;;;10.50;99.90;;;;;;4977781;28;93388;-75
2023/02/14 11:46:25;;;;;;;27.00;19.50;;;10.60;99.90;;;;;;4993932;28;93197;-75
2023/02/14 11:49:00;;;;;;;25.23;19.52;;;10.70;99.90;;;;;;4995461;28;93520;-75
2023/02/14 11:51:32;;;;;;;25.30;20.42;;;10.70;99.90;;;;;;4995337;28;93287;-75
2023/02/14 11:54:04;;;;;;;26.45;20.42;;;10.80;99.90;;;;;;4994157;28;91809;-74
2023/02/14 11:57:06;;;;;;;26.75;21.35;;;10.90;99.90;;;;;;4995516;28;92451;-74
2023/02/14 11:59:40;;;;;;;28.13;21.05;;;11.00;99.90;;;;;;4953661;28;93287;-74
2023/02/14 12:02:41;;;;;;;25.13;20.95;;;11.10;99.90;;;;;;4987498;28;95775;-74
2023/02/14 12:05:41;;;;;;;26.63;20.90;;;11.20;99.90;;;;;;4995031;28;95356;-74
2023/02/14 12:08:09;;;;;;;26.00;20.83;;;11.30;99.90;;;;;;4995270;28;92421;-74
2023/02/14 12:10:38;;;;;;;25.00;20.77;;;11.30;99.90;;;;;;4995212;28;92471;-74
2023/02/14 12:13:08;;;;;;;25.45;20.60;;;11.40;99.90;;;;;;4994718;28;93363;-74
2023/02/14 12:15:39;;;;;;;27.73;20.95;;;11.40;99.90;;;;;;4977124;28;95713;-74
2023/02/14 12:18:37;;;;;;;26.73;20.65;;;11.50;99.90;;;;;;4994592;28;92483;-74
2023/02/14 12:21:14;;;;;;;26.13;21.33;;;11.60;99.90;;;;;;4995452;28;91576;-74
2023/02/14 12:23:55;;;;;;;27.08;21.13;;;11.70;99.90;;;;;;4994945;28;93302;-74
2023/02/14 12:26:40;;;;;;;27.95;21.63;;;11.70;99.90;;;;;;4993732;28;93203;-74
2023/02/14 12:29:33;;;;;;;30.17;21.42;;;11.80;99.90;;;;;;4992373;28;94838;-74
2023/02/14 12:32:09;;;;;;;29.02;21.75;;;11.80;99.90;;;;;;4994855;28;92458;-74
2023/02/14 12:34:39;;;;;;;30.58;21.23;;;11.80;99.90;;;;;;4993199;28;94809;-74
2023/02/14 12:37:15;;;;;;;27.50;21.60;;;11.90;99.90;;;;;;4976622;28;96204;-74
2023/02/14 12:40:00;;;;;;;26.77;21.45;;;12.00;99.90;;;;;;4995069;28;92382;-74
2023/02/14 12:42:39;;;;;;;26.70;21.42;;;12.10;99.90;;;;;;4993440;28;92930;-74
2023/02/14 12:45:18;;;;;;;25.52;20.40;;;12.10;99.90;;;;;;4992809;28;95897;-75
2023/02/14 12:48:23;;;;;;;28.52;21.98;;;12.10;99.90;;;;;;4993831;28;92981;-75
2023/02/14 12:51:01;;;;;;;29.20;21.55;;;12.10;99.90;;;;;;4991987;28;92990;-75
2023/02/14 12:53:40;;;;;;;27.70;20.95;;;12.10;99.90;;;;;;4994855;28;92354;-75
2023/02/14 12:56:28;;;;;;;27.77;20.80;;;12.20;99.90;;;;;;4991697;28;98568;-75
2023/02/14 12:59:34;;;;;;;26.00;20.25;;;12.20;99.90;;;;;;4994488;28;95506;-75
2023/02/14 13:02:04;;;;;;;27.77;20.58;;;12.30;99.90;;;;;;4990504;28;92397;-75
2023/02/14 13:04:52;;;;;;;27.45;21.25;;;12.30;99.90;;;;;;4994353;28;92492;-75
2023/02/14 13:07:36;;;;;;;26.63;20.25;;;12.40;99.90;;;;;;4992694;28;95948;-75
2023/02/14 13:10:15;;;;;;;28.10;20.75;;;12.50;99.90;;;;;;4994611;28;93247;-75
2023/02/14 13:13:01;;;;;;;29.13;18.55;;;12.60;99.90;;;;;;4994662;28;92881;-75
2023/02/14 13:15:56;;;;;;;25.27;19.60;;;12.60;99.90;;;;;;4994785;28;91840;-75
2023/02/14 13:18:51;;;;;;;27.30;21.88;;;12.50;99.90;;;;;;4986826;28;93449;-75
2023/02/14 13:21:23;;;;;;;27.67;21.48;;;12.60;99.90;;;;;;4994024;28;93039;-75
2023/02/14 13:24:10;;;;;;;26.40;20.25;;;12.60;99.90;;;;;;4993147;28;94776;-75
2023/02/14 13:26:41;;;;;;;31.30;22.05;;;12.70;99.90;;;;;;4992338;28;92513;-75
2023/02/14 13:29:22;;;;;;;25.67;21.27;;;12.60;99.90;;;;;;4993935;28;93122;-75